Terminal Aerodrome Forecast
Issued by NWS Wakefield, VA

Home | Current Version | Previous Version | Text Only | Print | Product List | Glossary On
Versions: 1 2 3 4 5 6 7 8 9 10 11 12 13 14 15 16 17 18 19 20 21
000
FTUS41 KAKQ 241934 AAA
TAFSBY
TAF AMD
KSBY 241934Z 2420/2518 27012G20KT P6SM SCT040
     FM242200 26007KT P6SM SCT060
     FM250200 VRB03KT P6SM SCT120
     FM251700 31009G15KT P6SM SKC=

USA.gov is the U.S. government's official web portal to all federal, state and local government web resources and services.